Time;durP1;ratioP1;P1;durP2;ratioP2;P2;SDS_P1;SDS_P2;PMS_P1;PMS_P2;Temp;Humidity;BMP_temperature;BMP_pressure;BME280_temperature;BME280_humidity;BME280_pressure;Samples;Min_cycle;Max_cycle;Signal;HPM_P1;HPM_P2
2022/12/08 00:00:25;;;;;;;;;;;;;;;9.25;87.93;99853.28;5061773;28;19921;-67
2022/12/08 00:02:51;;;;;;;;;;;;;;;9.49;86.64;99855.34;5063174;28;20302;-67
2022/12/08 00:10:44;;;;;;;;;;;;;;;9.40;87.48;99860.72;5062814;28;19955;-67
2022/12/08 00:13:09;;;;;;;;;;;;;;;9.52;86.79;99857.69;5062843;28;19921;-67
2022/12/08 00:15:35;;;;;;;;;;;;;;;9.46;87.45;99860.13;5062460;28;19988;-74
2022/12/08 00:18:00;;;;;;;;;;;;;;;9.36;88.36;99868.09;5062900;28;20139;-67
2022/12/08 00:20:25;;;;;;;;;;;;;;;9.41;87.88;99870.31;5062751;28;19955;-67
2022/12/08 00:22:51;;;;;;;;;;;;;;;9.45;87.93;99871.66;5061452;28;19917;-74
2022/12/08 00:25:16;;;;;;;;;;;;;;;9.46;87.66;99878.63;5062597;28;19979;-67
2022/12/08 00:27:41;;;;;;;;;;;;;;;9.50;87.29;99872.03;5062843;28;19979;-74
2022/12/08 00:30:07;;;;;;;;;;;;;;;9.42;87.86;99879.91;5062354;28;19921;-73
2022/12/08 00:32:32;;;;;;;;;;;;;;;9.48;87.80;99879.28;5062840;28;19916;-67
2022/12/08 00:34:57;;;;;;;;;;;;;;;9.62;87.03;99881.41;5062395;28;19928;-67
2022/12/08 00:37:23;;;;;;;;;;;;;;;9.59;86.81;99879.06;5062345;28;19916;-67
2022/12/08 00:39:48;;;;;;;;;;;;;;;9.64;86.75;99879.44;5061329;28;19920;-67
2022/12/08 00:42:13;;;;;;;;;;;;;;;9.68;86.56;99885.25;5061078;28;19986;-67
2022/12/08 00:44:42;;;;;;;;;;;;;;;9.63;86.39;99887.50;5059430;28;20218;-67
2022/12/08 00:47:07;;;;;;;;;;;;;;;9.59;87.21;99881.69;5055495;28;19947;-74
2022/12/08 00:49:33;;;;;;;;;;;;;;;9.60;87.06;99873.63;5057334;28;19933;-68
2022/12/08 00:51:58;;;;;;;;;;;;;;;9.63;86.84;99880.41;5054323;28;19924;-67
2022/12/08 00:54:23;;;;;;;;;;;;;;;9.61;86.87;99866.53;5057476;28;19920;-74
2022/12/08 00:56:49;;;;;;;;;;;;;;;9.50;87.05;99869.41;5054603;28;19947;-74
2022/12/08 00:59:14;;;;;;;;;;;;;;;9.37;88.55;99864.50;5055621;28;19956;-74
2022/12/08 01:01:42;;;;;;;;;;;;;;;9.37;88.95;99863.66;5056739;28;20306;-67
2022/12/08 01:04:09;;;;;;;;;;;;;;;9.44;88.22;99867.38;5056893;28;20129;-67
2022/12/08 01:06:35;;;;;;;;;;;;;;;9.53;87.65;99853.22;5057185;28;19992;-67
2022/12/08 01:09:01;;;;;;;;;;;;;;;9.60;87.80;99863.03;5054826;28;19921;-74
2022/12/08 01:11:26;;;;;;;;;;;;;;;9.67;87.27;99865.06;5056456;28;19983;-68
2022/12/08 01:13:52;;;;;;;;;;;;;;;9.71;87.75;99864.63;5055257;28;19967;-74
2022/12/08 01:16:21;;;;;;;;;;;;;;;9.78;87.18;99870.94;5052890;28;19923;-67
2022/12/08 01:18:47;;;;;;;;;;;;;;;9.78;87.18;99870.13;5056381;28;19921;-67
2022/12/08 01:21:12;;;;;;;;;;;;;;;9.78;87.54;99860.38;5055540;28;19936;-67
2022/12/08 01:23:37;;;;;;;;;;;;;;;9.72;88.05;99860.16;5057049;28;20030;-74
2022/12/08 01:26:03;;;;;;;;;;;;;;;9.70;87.12;99857.66;5057867;28;21185;-69
2022/12/08 01:28:29;;;;;;;;;;;;;;;9.73;87.07;99867.09;5060422;28;20198;-74
2022/12/08 01:30:55;;;;;;;;;;;;;;;9.70;87.21;99870.06;5058911;28;20195;-74
2022/12/08 01:33:20;;;;;;;;;;;;;;;9.11;88.51;99832.69;5058713;28;19974;-74
2022/12/08 01:35:46;;;;;;;;;;;;;;;9.47;88.34;99869.69;5059685;28;19917;-67
2022/12/08 01:38:11;;;;;;;;;;;;;;;9.58;87.82;99872.09;5060474;28;19927;-74
2022/12/08 01:40:36;;;;;;;;;;;;;;;9.65;87.78;99878.44;5059101;28;19935;-67
2022/12/08 01:43:01;;;;;;;;;;;;;;;9.71;87.76;99890.22;5061207;28;19951;-73
2022/12/08 01:45:28;;;;;;;;;;;;;;;9.51;88.54;99886.91;5059790;28;19932;-67
2022/12/08 01:47:55;;;;;;;;;;;;;;;9.56;88.65;99879.38;5058262;28;19928;-74
2022/12/08 01:50:21;;;;;;;;;;;;;;;9.67;88.01;99876.47;5060724;28;19929;-74
2022/12/08 01:52:52;;;;;;;;;;;;;;;9.75;87.82;99878.34;5057172;28;19923;-74
2022/12/08 01:55:27;;;;;;;;;;;;;;;9.68;87.84;99864.91;5060402;28;19924;-67
2022/12/08 01:57:55;;;;;;;;;;;;;;;9.60;87.88;99870.16;5060567;28;19917;-73
2022/12/08 02:00:21;;;;;;;;;;;;;;;9.63;88.13;99863.72;5059744;28;19917;-67
2022/12/08 02:02:49;;;;;;;;;;;;;;;9.52;88.46;99865.63;5059287;28;20211;-67
2022/12/08 02:05:15;;;;;;;;;;;;;;;9.58;88.59;99880.88;5057867;28;19931;-74
2022/12/08 02:07:40;;;;;;;;;;;;;;;9.70;88.35;99864.78;5058478;28;19916;-74
2022/12/08 02:10:06;;;;;;;;;;;;;;;9.68;87.65;99867.56;5058647;28;19955;-67
2022/12/08 02:12:31;;;;;;;;;;;;;;;9.67;88.42;99859.78;5059726;28;19921;-67
2022/12/08 02:14:57;;;;;;;;;;;;;;;9.70;87.92;99860.31;5060123;28;20269;-74
2022/12/08 02:17:32;;;;;;;;;;;;;;;9.67;88.04;99863.25;5059919;28;19917;-67
2022/12/08 02:20:12;;;;;;;;;;;;;;;9.56;88.52;99859.03;5060316;28;19932;-67
2022/12/08 02:22:43;;;;;;;;;;;;;;;9.58;88.96;99853.59;5059049;28;19967;-74
2022/12/08 02:25:26;;;;;;;;;;;;;;;9.67;88.63;99857.16;5059359;28;19917;-69
2022/12/08 02:28:09;;;;;;;;;;;;;;;9.75;88.70;99865.97;5058828;28;20003;-74
2022/12/08 02:30:46;;;;;;;;;;;;;;;9.81;88.42;99865.34;5057245;28;19988;-74
2022/12/08 02:33:11;;;;;;;;;;;;;;;9.75;87.44;99859.84;5059329;28;19982;-70
2022/12/08 02:35:57;;;;;;;;;;;;;;;9.80;87.41;99866.34;5060326;28;19955;-68
2022/12/08 02:38:28;;;;;;;;;;;;;;;9.88;87.07;99865.56;5059082;28;19943;-67
2022/12/08 02:40:53;;;;;;;;;;;;;;;9.82;87.25;99869.66;5058727;28;20323;-67
2022/12/08 02:43:25;;;;;;;;;;;;;;;9.75;87.77;99862.50;5059719;28;19921;-67
2022/12/08 02:46:00;;;;;;;;;;;;;;;9.46;88.79;99866.22;5059690;28;19916;-74
2022/12/08 02:48:27;;;;;;;;;;;;;;;9.54;88.79;99871.59;5058632;28;20110;-72
2022/12/08 02:50:52;;;;;;;;;;;;;;;9.24;89.72;99872.78;5058543;28;19920;-74
2022/12/08 02:53:17;;;;;;;;;;;;;;;9.45;90.15;99863.75;5058933;28;20224;-67
2022/12/08 02:55:49;;;;;;;;;;;;;;;9.48;89.38;99868.72;5058812;28;20110;-74
2022/12/08 02:58:20;;;;;;;;;;;;;;;9.35;89.62;99873.53;5059311;28;20102;-74
2022/12/08 03:01:17;;;;;;;;;;;;;;;9.55;89.77;99885.63;5058116;28;19966;-74
2022/12/08 03:04:01;;;;;;;;;;;;;;;9.65;88.64;99882.91;5048317;28;20279;-72
2022/12/08 03:06:33;;;;;;;;;;;;;;;9.50;89.00;99878.16;5059902;28;20266;-74
2022/12/08 03:09:03;;;;;;;;;;;;;;;9.34;89.87;99880.63;5057875;28;19920;-75
2022/12/08 03:11:47;;;;;;;;;;;;;;;9.61;88.95;99885.03;5059062;28;19924;-74
2022/12/08 03:14:15;;;;;;;;;;;;;;;9.08;90.85;99872.59;5058270;28;19992;-67
2022/12/08 03:16:42;;;;;;;;;;;;;;;8.76;93.00;99872.25;5057086;28;19921;-74
2022/12/08 03:19:10;;;;;;;;;;;;;;;8.69;93.80;99876.44;5058432;28;20238;-67
2022/12/08 03:21:36;;;;;;;;;;;;;;;8.95;93.70;99878.25;5059570;28;19925;-67
2022/12/08 03:24:05;;;;;;;;;;;;;;;9.02;93.40;99867.09;5058342;28;20199;-74
2022/12/08 03:26:49;;;;;;;;;;;;;;;9.20;92.59;99858.19;5057106;28;19917;-74
2022/12/08 03:29:15;;;;;;;;;;;;;;;8.93;93.26;99863.53;5058556;28;20288;-67
2022/12/08 03:31:43;;;;;;;;;;;;;;;8.94;92.79;99865.19;5058314;28;19930;-75
2022/12/08 03:34:09;;;;;;;;;;;;;;;8.76;93.86;99874.88;5057527;28;20102;-67
2022/12/08 03:36:35;;;;;;;;;;;;;;;8.99;93.05;99862.94;5072326;28;20211;-74
2022/12/08 03:39:01;;;;;;;;;;;;;;;9.12;92.50;99854.66;5056062;28;19928;-67
2022/12/08 03:41:26;;;;;;;;;;;;;;;9.26;90.98;99860.25;5058537;28;19917;-67
2022/12/08 03:43:52;;;;;;;;;;;;;;;8.82;91.97;99866.38;5058180;28;19952;-67
2022/12/08 03:46:19;;;;;;;;;;;;;;;8.85;92.08;99871.34;5058459;28;20225;-67
2022/12/08 03:48:44;;;;;;;;;;;;;;;8.78;93.24;99875.56;5057313;28;20199;-75
2022/12/08 03:51:09;;;;;;;;;;;;;;;8.85;92.35;99877.47;5057572;28;19963;-68
2022/12/08 03:53:34;;;;;;;;;;;;;;;8.74;92.50;99875.03;5058943;28;19943;-68
2022/12/08 03:56:02;;;;;;;;;;;;;;;8.63;93.28;99877.88;5057350;28;19917;-67
2022/12/08 03:58:27;;;;;;;;;;;;;;;8.66;93.41;99879.38;5057931;28;19928;-74
2022/12/08 04:00:52;;;;;;;;;;;;;;;8.45;93.92;99885.72;5057603;28;19925;-67
2022/12/08 04:03:17;;;;;;;;;;;;;;;8.80;92.83;99885.00;5059131;28;20051;-67
2022/12/08 04:05:43;;;;;;;;;;;;;;;8.54;93.71;99882.22;5057572;28;19932;-74
2022/12/08 04:08:08;;;;;;;;;;;;;;;8.53;93.00;99874.44;5057431;28;19963;-74
2022/12/08 04:10:33;;;;;;;;;;;;;;;8.34;94.31;99875.34;5058170;28;20142;-75
2022/12/08 04:12:58;;;;;;;;;;;;;;;8.71;92.39;99866.56;5057956;28;19933;-67
2022/12/08 04:15:24;;;;;;;;;;;;;;;8.79;92.11;99875.44;5057067;28;19925;-67
2022/12/08 04:17:49;;;;;;;;;;;;;;;8.77;91.87;99877.38;5057721;28;19917;-74
2022/12/08 04:20:14;;;;;;;;;;;;;;;8.98;90.27;99882.41;5056830;28;19917;-74
2022/12/08 04:22:39;;;;;;;;;;;;;;;8.90;90.27;99877.03;5057761;28;19989;-74
2022/12/08 04:25:05;;;;;;;;;;;;;;;8.92;90.53;99878.53;5057021;28;19929;-73
2022/12/08 04:27:30;;;;;;;;;;;;;;;9.05;90.29;99872.91;5056513;28;19917;-74
2022/12/08 04:29:55;;;;;;;;;;;;;;;8.73;91.27;99880.47;5058664;28;19925;-74
2022/12/08 04:32:21;;;;;;;;;;;;;;;8.81;91.31;99883.19;5057341;28;19939;-74
2022/12/08 04:34:46;;;;;;;;;;;;;;;8.86;91.77;99887.06;5057409;28;19959;-74
2022/12/08 04:37:11;;;;;;;;;;;;;;;8.93;91.03;99879.38;5056115;28;20215;-68
2022/12/08 04:39:36;;;;;;;;;;;;;;;8.90;91.56;99883.13;5058124;28;19974;-74
2022/12/08 04:42:02;;;;;;;;;;;;;;;9.06;91.00;99885.13;5056972;28;19917;-67
2022/12/08 04:44:27;;;;;;;;;;;;;;;9.17;90.31;99886.72;5073438;28;19956;-74
2022/12/08 04:46:52;;;;;;;;;;;;;;;9.22;89.68;99880.00;5056968;28;19924;-70
2022/12/08 04:49:17;;;;;;;;;;;;;;;9.11;89.51;99889.97;5057052;28;20230;-74
2022/12/08 04:51:43;;;;;;;;;;;;;;;9.01;89.44;99891.84;5057475;28;19917;-74
2022/12/08 04:54:08;;;;;;;;;;;;;;;8.93;89.23;99885.50;5056154;28;19959;-74
2022/12/08 04:56:33;;;;;;;;;;;;;;;9.02;89.83;99893.50;5058314;28;19967;-74
2022/12/08 04:58:58;;;;;;;;;;;;;;;9.19;89.64;99882.13;5056245;28;19920;-74
2022/12/08 05:01:24;;;;;;;;;;;;;;;9.24;88.65;99875.41;5057869;28;20167;-67
2022/12/08 05:03:49;;;;;;;;;;;;;;;9.40;87.96;99880.03;5055667;28;19999;-67
2022/12/08 05:06:14;;;;;;;;;;;;;;;9.50;87.20;99878.16;5057310;28;19917;-74
2022/12/08 05:08:40;;;;;;;;;;;;;;;9.57;87.09;99881.03;5056898;28;19936;-74
2022/12/08 05:11:09;;;;;;;;;;;;;;;9.61;86.89;99887.66;5055759;28;20825;-74
2022/12/08 05:13:35;;;;;;;;;;;;;;;9.40;87.55;99895.06;5055803;28;20274;-74
2022/12/08 05:16:08;;;;;;;;;;;;;;;9.42;87.98;99899.22;5056203;28;19921;-75
2022/12/08 05:18:33;;;;;;;;;;;;;;;9.39;87.71;99894.25;5056706;28;20099;-67
2022/12/08 05:20:59;;;;;;;;;;;;;;;9.23;88.85;99900.16;5056921;28;19952;-74
2022/12/08 05:23:24;;;;;;;;;;;;;;;9.27;89.38;99906.81;5059231;28;19924;-69
2022/12/08 05:25:49;;;;;;;;;;;;;;;9.16;89.64;99904.38;5056119;28;20002;-74
2022/12/08 05:28:14;;;;;;;;;;;;;;;9.29;89.81;99906.66;5058736;28;19948;-74
2022/12/08 05:30:40;;;;;;;;;;;;;;;9.39;89.21;99910.09;5061309;28;19921;-74
2022/12/08 05:33:05;;;;;;;;;;;;;;;9.35;89.39;99906.06;5061938;28;19916;-67
2022/12/08 05:35:30;;;;;;;;;;;;;;;9.35;89.61;99913.16;5061541;28;19921;-74
2022/12/08 05:37:55;;;;;;;;;;;;;;;9.63;88.79;99921.88;5061753;28;19936;-74
2022/12/08 05:40:21;;;;;;;;;;;;;;;9.59;88.80;99914.25;5062151;28;19917;-74
2022/12/08 05:42:46;;;;;;;;;;;;;;;9.58;88.66;99915.25;5061533;28;19979;-75
2022/12/08 05:45:11;;;;;;;;;;;;;;;9.65;88.49;99918.09;5061582;28;20122;-67
2022/12/08 05:47:36;;;;;;;;;;;;;;;9.63;89.14;99919.25;5061455;28;19920;-68
2022/12/08 05:50:02;;;;;;;;;;;;;;;9.56;89.04;99926.94;5062246;28;19987;-74
2022/12/08 05:52:27;;;;;;;;;;;;;;;9.50;88.99;99938.13;5062703;28;19959;-74
2022/12/08 05:54:53;;;;;;;;;;;;;;;9.60;88.76;99930.94;5062815;28;19963;-68
2022/12/08 05:57:18;;;;;;;;;;;;;;;9.54;89.01;99937.66;5062487;28;19939;-74
2022/12/08 05:59:43;;;;;;;;;;;;;;;9.62;88.76;99931.63;5062853;28;19938;-67
2022/12/08 06:02:09;;;;;;;;;;;;;;;9.66;88.19;99943.56;5076993;28;19916;-67
2022/12/08 06:04:34;;;;;;;;;;;;;;;9.70;88.24;99952.03;5062283;28;20221;-67
2022/12/08 06:06:59;;;;;;;;;;;;;;;9.74;88.26;99945.44;5062586;28;20125;-73
2022/12/08 06:09:25;;;;;;;;;;;;;;;9.70;89.03;99944.94;5062037;28;19984;-74
2022/12/08 06:11:50;;;;;;;;;;;;;;;9.71;88.93;99949.22;5062790;28;19920;-74
2022/12/08 06:14:15;;;;;;;;;;;;;;;9.84;88.54;99944.38;5066351;28;19913;-67
2022/12/08 06:16:41;;;;;;;;;;;;;;;9.72;89.01;99947.41;5066231;28;20159;-67
2022/12/08 06:19:06;;;;;;;;;;;;;;;9.68;89.36;99944.25;5066090;28;19912;-67
2022/12/08 06:21:32;;;;;;;;;;;;;;;9.45;90.70;99949.16;5066434;28;19952;-68
2022/12/08 06:23:57;;;;;;;;;;;;;;;9.54;90.28;99945.59;5065930;28;20091;-68
2022/12/08 06:26:22;;;;;;;;;;;;;;;9.73;89.40;99946.44;5065781;28;19921;-67
2022/12/08 06:28:48;;;;;;;;;;;;;;;9.85;89.38;99947.88;5066021;28;20023;-68
2022/12/08 06:31:15;;;;;;;;;;;;;;;9.94;88.23;99949.59;5065776;28;20100;-74
2022/12/08 06:33:41;;;;;;;;;;;;;;;9.95;88.28;99953.06;5065728;28;19920;-67
2022/12/08 06:36:06;;;;;;;;;;;;;;;9.87;88.45;99964.41;5079541;28;19991;-74
2022/12/08 06:38:31;;;;;;;;;;;;;;;9.90;88.73;99962.28;5066180;28;19944;-67
2022/12/08 06:40:57;;;;;;;;;;;;;;;9.74;89.50;99961.31;5064912;28;19928;-68
2022/12/08 06:43:23;;;;;;;;;;;;;;;9.77;89.32;99967.13;5062267;28;19974;-74
2022/12/08 06:45:48;;;;;;;;;;;;;;;9.94;89.07;99968.09;5062330;28;20172;-67
2022/12/08 06:48:14;;;;;;;;;;;;;;;9.87;88.21;99959.94;5064157;28;19921;-67
2022/12/08 06:50:40;;;;;;;;;;;;;;;9.91;88.77;99966.59;5062262;28;19928;-75
2022/12/08 06:53:05;;;;;;;;;;;;;;;9.65;89.02;99963.06;5064316;28;19921;-67
2022/12/08 06:55:30;;;;;;;;;;;;;;;9.81;87.99;99962.38;5063727;28;19917;-67
2022/12/08 06:57:56;;;;;;;;;;;;;;;9.83;88.39;99969.16;5062562;28;19928;-74
2022/12/08 07:00:21;;;;;;;;;;;;;;;9.50;89.74;99970.69;5061284;28;19921;-67
2022/12/08 07:02:46;;;;;;;;;;;;;;;9.70;89.50;99967.88;5064408;28;19971;-67
2022/12/08 07:05:11;;;;;;;;;;;;;;;9.78;89.15;99974.09;5062962;28;19920;-74
2022/12/08 07:07:37;;;;;;;;;;;;;;;9.88;88.56;99974.84;5061678;28;19916;-74
2022/12/08 07:10:02;;;;;;;;;;;;;;;9.74;89.51;99972.72;5062645;28;19928;-74
2022/12/08 07:12:27;;;;;;;;;;;;;;;9.90;89.45;99974.69;5061625;28;19923;-68
2022/12/08 07:14:53;;;;;;;;;;;;;;;9.88;88.67;99974.84;5061605;28;20002;-67
2022/12/08 07:17:18;;;;;;;;;;;;;;;9.97;88.79;99977.56;5063692;28;19928;-67
2022/12/08 07:19:43;;;;;;;;;;;;;;;10.01;88.86;99987.69;5062768;28;19917;-74
2022/12/08 07:22:09;;;;;;;;;;;;;;;10.07;88.81;99989.72;5061593;28;20195;-74
2022/12/08 07:24:34;;;;;;;;;;;;;;;10.13;88.94;99994.38;5062349;28;19979;-74
2022/12/08 07:26:59;;;;;;;;;;;;;;;10.27;87.55;99990.41;5061449;28;19952;-74
2022/12/08 07:29:24;;;;;;;;;;;;;;;10.16;88.11;99994.09;5061788;28;19980;-67
2022/12/08 07:31:50;;;;;;;;;;;;;;;10.22;87.80;99995.31;5061195;28;20137;-68
2022/12/08 07:34:15;;;;;;;;;;;;;;;10.32;86.98;100005.81;5063953;28;19916;-67
2022/12/08 07:36:40;;;;;;;;;;;;;;;10.14;87.49;100006.63;5063418;28;19921;-74
2022/12/08 07:39:06;;;;;;;;;;;;;;;10.30;88.51;100005.13;5062192;28;19921;-74
2022/12/08 07:41:32;;;;;;;;;;;;;;;10.15;88.07;100005.66;5063720;28;19921;-74
2022/12/08 07:43:57;;;;;;;;;;;;;;;10.21;88.53;100013.00;5064055;28;19916;-73
2022/12/08 07:46:24;;;;;;;;;;;;;;;10.06;89.73;100011.03;5061989;28;19991;-67
2022/12/08 07:48:50;;;;;;;;;;;;;;;10.08;89.87;100009.06;5062256;28;20075;-74
2022/12/08 07:51:15;;;;;;;;;;;;;;;10.13;89.53;100012.91;5062202;28;19927;-67
2022/12/08 07:53:42;;;;;;;;;;;;;;;9.96;89.96;100031.44;5059750;28;19916;-75
2022/12/08 07:56:08;;;;;;;;;;;;;;;9.85;91.05;100029.84;5062721;28;19937;-67
2022/12/08 07:58:33;;;;;;;;;;;;;;;9.84;90.82;100036.94;5060829;28;20164;-74
2022/12/08 08:00:58;;;;;;;;;;;;;;;10.02;91.05;100033.47;5061543;28;19995;-73
2022/12/08 08:03:24;;;;;;;;;;;;;;;10.09;90.16;100032.72;5061201;28;19916;-73
2022/12/08 08:05:49;;;;;;;;;;;;;;;10.09;91.38;100031.91;5062394;28;19979;-68
2022/12/08 08:08:15;;;;;;;;;;;;;;;9.55;92.25;100025.75;5061802;28;19983;-67
2022/12/08 08:10:40;;;;;;;;;;;;;;;9.64;92.71;100022.19;5061353;28;19921;-67
2022/12/08 08:13:05;;;;;;;;;;;;;;;9.65;93.27;100020.38;5062998;28;19925;-67
2022/12/08 08:15:31;;;;;;;;;;;;;;;9.82;92.52;100032.78;5060344;28;19929;-67
2022/12/08 08:17:56;;;;;;;;;;;;;;;9.87;92.19;100023.44;5062829;28;20163;-67
2022/12/08 08:20:21;;;;;;;;;;;;;;;9.53;93.39;100023.25;5061375;28;20167;-67
2022/12/08 08:22:47;;;;;;;;;;;;;;;9.68;92.85;100015.63;5062357;28;20215;-71
2022/12/08 08:25:14;;;;;;;;;;;;;;;9.71;92.89;100030.38;5062052;28;19928;-67
2022/12/08 08:27:39;;;;;;;;;;;;;;;9.65;92.99;100029.16;5060829;28;19912;-67
2022/12/08 08:30:06;;;;;;;;;;;;;;;9.53;93.69;100025.06;5060108;28;19928;-74
2022/12/08 08:32:32;;;;;;;;;;;;;;;9.62;93.56;100023.34;5062814;28;19977;-74
2022/12/08 08:34:57;;;;;;;;;;;;;;;9.44;94.62;100025.94;5063523;28;19916;-67
2022/12/08 08:37:23;;;;;;;;;;;;;;;9.24;95.40;100023.38;5062329;28;20090;-74
2022/12/08 08:39:48;;;;;;;;;;;;;;;9.38;96.04;100021.25;5061232;28;19918;-67
2022/12/08 08:42:13;;;;;;;;;;;;;;;9.66;94.97;100022.88;5061242;28;19920;-74
2022/12/08 08:44:39;;;;;;;;;;;;;;;9.74;93.92;100030.91;5062288;28;19916;-68
2022/12/08 08:47:04;;;;;;;;;;;;;;;9.81;93.07;100024.03;5059843;28;19966;-67
2022/12/08 08:49:29;;;;;;;;;;;;;;;9.95;93.21;100019.19;5063194;28;19923;-74
2022/12/08 08:51:54;;;;;;;;;;;;;;;9.53;94.47;100015.31;5061265;28;19921;-67
2022/12/08 08:54:20;;;;;;;;;;;;;;;9.58;95.78;100014.88;5061401;28;19940;-67
2022/12/08 08:56:47;;;;;;;;;;;;;;;9.91;93.55;100011.56;5061183;28;19920;-68
2022/12/08 08:59:12;;;;;;;;;;;;;;;9.84;93.58;99999.09;5058071;28;19920;-75
2022/12/08 09:01:37;;;;;;;;;;;;;;;9.58;94.80;100004.28;5060762;28;20004;-74
2022/12/08 09:04:02;;;;;;;;;;;;;;;9.74;94.98;100012.38;5061944;28;19925;-74
2022/12/08 09:06:28;;;;;;;;;;;;;;;9.96;93.27;99997.88;5059390;28;19927;-67
2022/12/08 09:08:53;;;;;;;;;;;;;;;10.01;93.44;99986.84;5060728;28;19969;-67
2022/12/08 09:11:18;;;;;;;;;;;;;;;9.91;93.64;99986.94;5061456;28;19920;-67
2022/12/08 09:13:46;;;;;;;;;;;;;;;10.08;93.66;99990.53;5060452;28;19924;-68
2022/12/08 09:16:11;;;;;;;;;;;;;;;10.14;92.91;99988.13;5056064;28;19933;-74
2022/12/08 09:18:37;;;;;;;;;;;;;;;10.17;92.84;99977.22;5060895;28;19924;-67
2022/12/08 09:21:03;;;;;;;;;;;;;;;10.27;91.94;99984.28;5057708;28;19929;-74
2022/12/08 09:23:29;;;;;;;;;;;;;;;10.52;90.71;99984.31;5076266;28;20149;-68
2022/12/08 09:25:54;;;;;;;;;;;;;;;10.54;91.09;99990.28;5079000;28;19917;-74
2022/12/08 09:28:19;;;;;;;;;;;;;;;10.44;91.31;99988.72;5068306;28;19931;-74
2022/12/08 09:30:44;;;;;;;;;;;;;;;10.48;91.11;99987.44;5074682;28;19924;-67
2022/12/08 09:33:10;;;;;;;;;;;;;;;10.54;91.69;99986.81;5063821;28;19955;-68
2022/12/08 09:35:35;;;;;;;;;;;;;;;10.60;90.68;99977.41;5050362;28;20230;-75
2022/12/08 09:38:00;;;;;;;;;;;;;;;10.77;90.14;99977.34;5062432;28;19924;-67
2022/12/08 09:40:27;;;;;;;;;;;;;;;10.44;91.15;99983.44;5073871;28;19924;-74
2022/12/08 09:43:12;;;;;;;;;;;;;;;10.62;90.32;99981.56;5062732;28;19935;-74
2022/12/08 09:45:38;;;;;;;;;;;;;;;10.87;88.25;99970.09;5061032;28;19939;-68
2022/12/08 09:48:13;;;;;;;;;;;;;;;10.96;87.73;99957.72;5066728;28;19917;-75
2022/12/08 09:50:42;;;;;;;;;;;;;;;11.11;85.59;99957.94;5066345;28;19928;-67
2022/12/08 09:53:20;;;;;;;;;;;;;;;11.28;84.95;99957.00;5066790;28;19983;-73
2022/12/08 09:55:47;;;;;;;;;;;;;;;11.26;85.73;99960.81;5072712;28;19963;-74
2022/12/08 09:58:18;;;;;;;;;;;;;;;11.24;86.56;99957.50;5072132;28;20090;-74
2022/12/08 10:00:44;;;;;;;;;;;;;;;11.35;86.01;99951.91;5066392;28;20214;-67
2022/12/08 10:03:12;;;;;;;;;;;;;;;11.25;85.58;99959.97;5066565;28;19923;-75
2022/12/08 10:05:42;;;;;;;;;;;;;;;11.23;87.33;99942.59;5066036;28;20142;-73
2022/12/08 10:08:12;;;;;;;;;;;;;;;11.36;85.83;99941.13;5066209;28;20076;-75
2022/12/08 10:10:45;;;;;;;;;;;;;;;11.26;85.69;99935.13;5065931;28;19921;-67
2022/12/08 10:13:10;;;;;;;;;;;;;;;11.43;85.55;99930.69;5066747;28;20015;-67
2022/12/08 10:15:42;;;;;;;;;;;;;;;11.37;85.76;99932.19;5065196;28;20215;-75
2022/12/08 10:18:10;;;;;;;;;;;;;;;11.35;86.14;99930.69;5064131;28;19923;-68
2022/12/08 10:20:37;;;;;;;;;;;;;;;11.44;85.50;99916.44;5060620;28;19936;-74
2022/12/08 10:23:05;;;;;;;;;;;;;;;11.43;85.45;99917.44;5063880;28;19925;-67
2022/12/08 10:25:33;;;;;;;;;;;;;;;11.52;84.83;99922.63;5062679;28;19920;-67
2022/12/08 10:27:59;;;;;;;;;;;;;;;11.44;85.66;99911.16;5062921;28;19923;-75
2022/12/08 10:30:24;;;;;;;;;;;;;;;11.45;85.48;99918.16;5064927;28;19964;-68
2022/12/08 10:32:51;;;;;;;;;;;;;;;11.68;84.32;99921.81;5063203;28;19988;-74
2022/12/08 10:35:18;;;;;;;;;;;;;;;11.42;85.77;99911.31;5066492;28;20262;-74
2022/12/08 10:37:56;;;;;;;;;;;;;;;11.45;85.27;99915.50;5064083;28;19985;-68
2022/12/08 10:40:23;;;;;;;;;;;;;;;11.27;85.97;99926.19;5063123;28;19924;-67
2022/12/08 10:42:51;;;;;;;;;;;;;;;11.30;85.85;99922.38;5063262;28;20218;-67
2022/12/08 10:45:29;;;;;;;;;;;;;;;11.28;86.80;99914.59;5064953;28;19921;-75
2022/12/08 10:47:57;;;;;;;;;;;;;;;11.49;86.53;99908.88;5064450;28;19991;-75
2022/12/08 10:50:27;;;;;;;;;;;;;;;11.38;86.26;99902.03;5064035;28;19991;-68
2022/12/08 10:53:07;;;;;;;;;;;;;;;11.08;87.57;99902.63;5064355;28;19917;-74
2022/12/08 10:55:43;;;;;;;;;;;;;;;11.04;88.27;99893.34;5060571;28;19942;-67
2022/12/08 10:58:26;;;;;;;;;;;;;;;11.28;87.24;99888.09;5060907;28;19917;-74
2022/12/08 11:01:15;;;;;;;;;;;;;;;11.46;86.16;99885.31;5061668;28;19929;-74
2022/12/08 11:03:46;;;;;;;;;;;;;;;11.48;85.92;99886.81;5061429;28;19933;-75
2022/12/08 11:06:14;;;;;;;;;;;;;;;11.53;86.27;99888.97;5063748;28;19966;-74
2022/12/08 11:08:45;;;;;;;;;;;;;;;11.38;86.72;99894.06;5063422;28;19939;-67
2022/12/08 11:11:11;;;;;;;;;;;;;;;11.17;87.72;99893.69;5063676;28;19940;-75
2022/12/08 11:13:39;;;;;;;;;;;;;;;11.33;87.29;99896.38;5063753;28;19920;-68
2022/12/08 11:16:05;;;;;;;;;;;;;;;11.42;86.92;99886.63;5059532;28;20199;-68
2022/12/08 11:18:38;;;;;;;;;;;;;;;11.55;86.06;99876.38;5062469;28;19924;-74
2022/12/08 11:21:12;;;;;;;;;;;;;;;11.47;86.80;99884.34;5063772;28;19920;-74
2022/12/08 11:23:40;;;;;;;;;;;;;;;11.50;86.79;99878.72;5060516;28;19920;-67
2022/12/08 11:26:28;;;;;;;;;;;;;;;11.57;85.72;99879.72;5064078;28;19921;-68
2022/12/08 11:28:54;;;;;;;;;;;;;;;11.67;86.22;99866.28;5059684;28;20368;-68
2022/12/08 11:31:32;;;;;;;;;;;;;;;11.69;85.62;99865.13;5064038;28;19925;-74
2022/12/08 11:33:57;;;;;;;;;;;;;;;11.82;84.51;99867.28;5059854;28;19921;-67
2022/12/08 11:36:24;;;;;;;;;;;;;;;11.84;84.57;99854.69;5062254;28;19927;-67
2022/12/08 11:38:53;;;;;;;;;;;;;;;11.86;84.38;99863.31;5061562;28;19923;-68
2022/12/08 11:41:24;;;;;;;;;;;;;;;11.92;84.51;99857.34;5063221;28;20158;-74
2022/12/08 11:43:58;;;;;;;;;;;;;;;11.80;85.12;99854.19;5058950;28;19954;-68
2022/12/08 11:46:31;;;;;;;;;;;;;;;11.63;85.45;99857.00;5062459;28;19921;-68
2022/12/08 11:49:03;;;;;;;;;;;;;;;11.62;85.90;99855.34;5062116;28;20006;-67
2022/12/08 11:51:28;;;;;;;;;;;;;;;11.57;85.86;99844.41;5056624;28;20241;-74
2022/12/08 11:54:05;;;;;;;;;;;;;;;11.62;86.20;99853.50;5061418;28;19944;-67
2022/12/08 11:56:35;;;;;;;;;;;;;;;11.78;86.02;99858.84;5061839;28;19920;-70
2022/12/08 11:59:05;;;;;;;;;;;;;;;11.87;85.87;99857.00;5075017;28;20203;-67
2022/12/08 12:01:30;;;;;;;;;;;;;;;11.73;85.34;99850.53;5041744;28;20248;-68
2022/12/08 12:04:01;;;;;;;;;;;;;;;11.69;85.61;99845.72;5060789;28;19917;-67
2022/12/08 12:06:26;;;;;;;;;;;;;;;11.66;86.07;99846.88;5060148;28;20132;-67
2022/12/08 12:09:08;;;;;;;;;;;;;;;11.57;87.45;99847.06;5062073;28;19996;-74
2022/12/08 12:14:27;;;;;;;;;;;;;;;11.42;87.28;99850.34;5060190;28;19982;-68
2022/12/08 12:16:52;;;;;;;;;;;;;;;11.49;87.53;99845.22;5062534;28;20249;-68
2022/12/08 12:19:19;;;;;;;;;;;;;;;11.34;87.57;99845.03;5060187;28;20330;-74
2022/12/08 12:21:49;;;;;;;;;;;;;;;11.23;87.92;99852.47;5059434;28;19937;-67
2022/12/08 12:24:19;;;;;;;;;;;;;;;11.54;87.79;99853.50;5061816;28;19926;-67
2022/12/08 12:26:53;;;;;;;;;;;;;;;11.18;88.71;99852.97;5062015;28;19921;-74
2022/12/08 12:29:20;;;;;;;;;;;;;;;11.12;88.82;99857.09;5061582;28;19920;-67
2022/12/08 12:31:53;;;;;;;;;;;;;;;11.26;88.27;99855.63;5062735;28;19992;-75
2022/12/08 12:34:24;;;;;;;;;;;;;;;11.05;89.77;99858.72;5061393;28;19923;-73
2022/12/08 12:36:53;;;;;;;;;;;;;;;11.00;89.82;99865.50;5061397;28;19944;-68
2022/12/08 12:39:20;;;;;;;;;;;;;;;10.82;91.18;99868.28;5062511;28;19963;-74
2022/12/08 12:41:54;;;;;;;;;;;;;;;10.71;91.49;99877.34;5062243;28;20230;-74
2022/12/08 12:44:34;;;;;;;;;;;;;;;10.76;91.03;99866.25;5060741;28;20199;-67
2022/12/08 12:47:01;;;;;;;;;;;;;;;10.80;91.18;99864.94;5060031;28;19944;-75
2022/12/08 12:49:39;;;;;;;;;;;;;;;10.87;90.66;99861.50;5061214;28;19917;-74
2022/12/08 12:52:22;;;;;;;;;;;;;;;10.83;90.65;99868.09;5060381;28;19921;-74
2022/12/08 12:54:50;;;;;;;;;;;;;;;10.84;90.74;99858.34;5058771;28;19924;-68
2022/12/08 12:57:18;;;;;;;;;;;;;;;10.75;91.73;99859.31;5059884;28;19951;-74
2022/12/08 13:00:04;;;;;;;;;;;;;;;10.86;90.65;99851.06;5060649;28;19917;-68
2022/12/08 13:02:48;;;;;;;;;;;;;;;11.03;90.16;99847.47;5056824;28;19927;-67